createdAt,value
2017-06-22T03:31:22.656Z,8.33
2017-06-22T03:33:50.308Z,7.93
2017-06-22T03:36:18.762Z,8.30
2017-06-22T03:38:46.525Z,8.20
2017-06-22T03:41:14.186Z,8.23
2017-06-22T03:43:41.844Z,8.40
2017-06-22T03:46:10.048Z,9.00
2017-06-22T03:48:37.696Z,8.73
2017-06-22T03:51:06.125Z,8.90
2017-06-22T03:53:33.863Z,8.63
2017-06-22T03:56:01.555Z,9.10
2017-06-22T03:58:29.247Z,7.80
2017-06-22T04:00:58.664Z,7.93
2017-06-22T04:03:27.093Z,7.93
2017-06-22T04:05:54.761Z,7.30
2017-06-22T04:08:22.811Z,7.40
2017-06-22T04:10:58.426Z,6.67
2017-06-22T04:13:26.976Z,7.20
2017-06-22T04:15:54.623Z,7.27
2017-06-22T04:18:22.290Z,6.77
2017-06-22T04:20:49.949Z,6.73
2017-06-22T04:23:17.696Z,7.60
2017-06-22T04:25:45.366Z,7.37
2017-06-22T04:28:13.034Z,6.93
2017-06-22T04:30:40.729Z,8.10
2017-06-22T04:33:08.377Z,7.77
2017-06-22T04:35:36.409Z,8.30
2017-06-22T04:38:04.073Z,8.00
2017-06-22T04:40:31.761Z,8.13
2017-06-22T04:42:59.678Z,8.67
2017-06-22T04:45:28.093Z,8.40
2017-06-22T04:47:56.145Z,9.43
2017-06-22T04:50:23.820Z,9.50
2017-06-22T04:52:51.489Z,9.40
2017-06-22T04:55:19.647Z,9.40
2017-06-22T04:57:47.303Z,10.23
2017-06-22T05:00:14.984Z,9.20
2017-06-22T05:02:42.787Z,7.90
2017-06-22T05:05:10.496Z,9.23
2017-06-22T05:07:38.168Z,9.50
2017-06-22T05:10:06.115Z,9.77
2017-06-22T05:12:33.794Z,9.27
2017-06-22T05:15:01.450Z,8.53
2017-06-22T05:17:29.471Z,9.33
2017-06-22T05:19:57.145Z,7.90
2017-06-22T05:22:24.798Z,8.07
2017-06-22T05:24:52.812Z,7.40
2017-06-22T05:27:20.459Z,7.90
2017-06-22T05:29:48.882Z,7.63
2017-06-22T05:32:16.650Z,6.60
2017-06-22T05:34:44.293Z,6.57
2017-06-22T05:37:11.952Z,7.00
2017-06-22T05:39:39.939Z,7.53
2017-06-22T05:42:07.584Z,7.80
2017-06-22T05:44:35.327Z,8.50
2017-06-22T05:47:04.218Z,8.67
2017-06-22T05:49:32.615Z,8.50
2017-06-22T05:52:00.348Z,9.90
2017-06-22T05:54:28.885Z,9.00
2017-06-22T05:56:56.550Z,9.50
2017-06-22T05:59:24.203Z,8.50
2017-06-22T06:01:52.010Z,9.20
2017-06-22T06:04:19.673Z,9.53
2017-06-22T06:06:47.333Z,10.27
2017-06-22T06:09:15.338Z,8.83
2017-06-22T06:11:42.989Z,8.43
2017-06-22T06:14:10.660Z,8.60
2017-06-22T06:16:38.640Z,9.17
2017-06-22T06:19:06.334Z,8.60
2017-06-22T06:21:34.034Z,8.60
2017-06-22T06:24:02.474Z,7.77
2017-06-22T06:26:30.184Z,8.80
2017-06-22T06:28:58.661Z,9.37
2017-06-22T06:31:27.082Z,8.50
2017-06-22T06:33:54.902Z,10.80
2017-06-22T06:36:23.329Z,9.40
2017-06-22T06:38:50.976Z,8.50
2017-06-22T06:41:18.651Z,9.33
2017-06-22T06:43:46.315Z,9.60
2017-06-22T06:46:13.996Z,9.20
2017-06-22T06:48:41.623Z,8.50
2017-06-22T06:51:09.298Z,8.43
2017-06-22T06:53:36.983Z,9.03
2017-06-22T06:56:04.802Z,9.83
2017-06-22T06:58:32.459Z,8.23
2017-06-22T07:01:00.116Z,8.97
2017-06-22T07:03:28.560Z,9.10
2017-06-22T07:05:56.206Z,9.23
2017-06-22T07:08:23.984Z,8.33
2017-06-22T07:10:51.670Z,9.13
2017-06-22T07:13:20.115Z,10.00
2017-06-22T07:15:47.760Z,9.43
2017-06-22T07:18:15.641Z,9.37
2017-06-22T07:20:43.506Z,9.40
2017-06-22T07:23:11.224Z,9.67
2017-06-22T07:25:38.891Z,9.60
2017-06-22T07:28:06.539Z,9.30
2017-06-22T07:30:34.211Z,9.10
2017-06-22T07:33:02.634Z,11.23
2017-06-22T07:35:30.653Z,10.20
2017-06-22T07:37:59.069Z,9.53
2017-06-22T07:40:26.728Z,8.60
2017-06-22T07:42:54.378Z,9.80
2017-06-22T07:45:22.056Z,10.53
2017-06-22T07:47:49.719Z,9.80
2017-06-22T07:50:17.379Z,10.57
2017-06-22T07:52:45.031Z,9.67
2017-06-22T07:55:12.683Z,8.60
2017-06-22T07:57:40.417Z,8.80
2017-06-22T08:00:08.076Z,10.30
2017-06-22T08:02:35.732Z,9.23
2017-06-22T08:05:03.843Z,8.50
2017-06-22T08:07:31.499Z,9.00
2017-06-22T08:09:59.154Z,9.10
2017-06-22T08:12:27.610Z,8.73
2017-06-22T08:14:55.265Z,9.20
2017-06-22T08:17:23.030Z,8.43
2017-06-22T08:19:50.690Z,10.67
2017-06-22T08:22:18.356Z,11.20
2017-06-22T08:24:46.122Z,10.73
2017-06-22T08:27:13.762Z,9.43
2017-06-22T08:29:41.407Z,9.20
2017-06-22T08:32:09.171Z,9.30
2017-06-22T08:34:36.819Z,9.87
2017-06-22T08:37:04.646Z,10.10
2017-06-22T08:39:32.421Z,9.87
2017-06-22T08:42:00.067Z,9.60
2017-06-22T08:44:27.722Z,9.30
2017-06-22T08:46:55.582Z,9.80
2017-06-22T08:49:23.230Z,11.47
2017-06-22T08:51:50.866Z,9.30
2017-06-22T08:54:18.642Z,9.90
2017-06-22T08:56:46.280Z,9.17
2017-06-22T08:59:13.972Z,9.60
2017-06-22T09:01:41.773Z,9.50
2017-06-22T09:04:09.411Z,10.00
2017-06-22T09:06:37.135Z,8.23
2017-06-22T09:09:05.184Z,8.90
2017-06-22T09:11:33.678Z,9.00
2017-06-22T09:14:01.319Z,8.30
2017-06-22T09:16:30.121Z,9.80
2017-06-22T09:18:58.546Z,9.60
2017-06-22T09:21:26.199Z,10.30
2017-06-22T09:23:53.877Z,10.53
2017-06-22T09:26:21.543Z,8.50
2017-06-22T09:28:49.196Z,9.27
2017-06-22T09:31:16.836Z,8.70
2017-06-22T09:33:44.689Z,11.10
2017-06-22T09:36:12.366Z,9.50
2017-06-22T09:38:40.022Z,9.60
2017-06-22T09:41:07.688Z,9.23
2017-06-22T09:43:35.324Z,9.07
2017-06-22T09:46:02.992Z,8.70
2017-06-22T09:48:30.640Z,9.37
2017-06-22T09:50:58.302Z,9.20
2017-06-22T09:53:26.705Z,9.00
2017-06-22T09:55:54.545Z,9.50
2017-06-22T09:58:22.175Z,8.60
2017-06-22T10:00:49.836Z,9.53
2017-06-22T10:03:17.497Z,9.17
2017-06-22T10:05:45.127Z,9.60
2017-06-22T10:08:12.971Z,8.23
2017-06-22T10:10:40.614Z,8.13
2017-06-22T10:13:09.025Z,8.10
2017-06-22T10:15:36.806Z,7.40
2017-06-22T10:18:04.459Z,7.80
2017-06-22T10:20:32.109Z,7.40
2017-06-22T10:23:00.159Z,7.33
2017-06-22T10:25:28.542Z,8.20
2017-06-22T10:27:56.957Z,8.00
2017-06-22T10:30:24.789Z,7.30
2017-06-22T10:32:52.412Z,9.17
2017-06-22T10:35:20.082Z,7.27
2017-06-22T10:37:47.887Z,8.57
2017-06-22T10:40:15.537Z,8.60
2017-06-22T10:42:43.943Z,8.27
2017-06-22T10:45:11.985Z,9.13
2017-06-22T10:47:40.390Z,9.00
2017-06-22T10:50:08.028Z,9.70
2017-06-22T10:52:36.449Z,9.47
2017-06-22T10:55:04.076Z,9.50
2017-06-22T10:57:32.650Z,9.73
2017-06-22T11:00:01.078Z,8.90
2017-06-22T11:02:28.725Z,7.57
2017-06-22T11:04:56.384Z,8.73
2017-06-22T11:07:24.029Z,9.03
2017-06-22T11:09:51.716Z,8.50
2017-06-22T11:12:19.349Z,8.27
2017-06-22T11:14:47.011Z,8.30
2017-06-22T11:17:14.635Z,8.67
2017-06-22T11:19:42.296Z,8.17
2017-06-22T11:22:09.976Z,10.53
2017-06-22T11:24:37.759Z,10.43
2017-06-22T11:27:06.173Z,8.30
2017-06-22T11:29:33.831Z,9.10
2017-06-22T11:32:01.504Z,9.00
2017-06-22T11:34:29.144Z,9.30
2017-06-22T11:36:56.799Z,9.23
2017-06-22T11:39:24.471Z,9.60
2017-06-22T11:41:52.411Z,9.27
2017-06-22T11:44:20.933Z,9.70
2017-06-22T11:46:48.595Z,9.60
2017-06-22T11:49:16.543Z,8.80
2017-06-22T11:51:44.189Z,8.43
2017-06-22T11:54:11.860Z,9.70
2017-06-22T11:56:39.711Z,9.40
2017-06-22T11:59:08.133Z,8.63
2017-06-22T12:01:35.800Z,9.27
2017-06-22T12:04:03.616Z,8.50
2017-06-22T12:06:32.015Z,8.57
2017-06-22T12:08:59.668Z,8.10
2017-06-22T12:11:28.423Z,8.40
2017-06-22T12:13:56.038Z,8.50
2017-06-22T12:16:23.711Z,8.57
2017-06-22T12:18:51.761Z,8.60
2017-06-22T12:21:19.397Z,8.73
2017-06-22T12:23:47.927Z,9.30
2017-06-22T12:26:15.771Z,8.75
2017-06-22T12:28:43.412Z,8.97
2017-06-22T12:31:11.869Z,9.40
2017-06-22T12:33:39.558Z,8.40
2017-06-22T12:36:07.980Z,8.43
2017-06-22T12:38:35.655Z,8.47
2017-06-22T12:41:03.303Z,8.50
2017-06-22T12:43:31.352Z,7.77
2017-06-22T12:45:59.122Z,9.17
2017-06-22T12:48:26.783Z,9.80
2017-06-22T12:50:54.469Z,8.60
2017-06-22T12:53:22.151Z,9.43
2017-06-22T12:55:49.827Z,8.93
2017-06-22T12:58:17.545Z,8.67
2017-06-22T13:00:45.214Z,8.47
2017-06-22T13:03:12.871Z,9.70
2017-06-22T13:05:40.698Z,9.80
2017-06-22T13:08:09.203Z,10.00
2017-06-22T13:10:36.875Z,8.83
2017-06-22T13:13:04.588Z,9.30
2017-06-22T13:15:32.247Z,9.07
2017-06-22T13:17:59.882Z,8.70
2017-06-22T13:20:27.523Z,9.33
2017-06-22T13:22:55.187Z,9.70
2017-06-22T13:25:22.833Z,9.30
2017-06-22T13:27:50.468Z,9.17
2017-06-22T13:30:18.877Z,8.60
2017-06-22T13:32:46.914Z,9.17
2017-06-22T13:35:14.563Z,9.60
2017-06-22T13:37:42.224Z,9.83
2017-06-22T13:40:10.037Z,8.93
2017-06-22T13:42:37.707Z,9.20
2017-06-22T13:45:05.362Z,9.53
2017-06-22T13:47:33.223Z,8.23
2017-06-22T13:50:00.873Z,8.53
2017-06-22T13:52:29.281Z,9.50
2017-06-22T13:54:57.115Z,9.13
2017-06-22T13:57:25.568Z,7.87
2017-06-22T13:59:53.245Z,9.27
2017-06-22T14:02:21.787Z,8.60
2017-06-22T14:04:49.443Z,8.80
2017-06-22T14:07:17.115Z,9.30
2017-06-22T14:09:45.268Z,9.93
2017-06-22T14:12:12.923Z,8.33
2017-06-22T14:14:40.583Z,9.40
2017-06-22T14:17:08.431Z,9.00
2017-06-22T14:19:36.934Z,9.03
2017-06-22T14:22:04.590Z,9.83
2017-06-22T14:24:32.445Z,9.77
2017-06-22T14:27:00.220Z,8.50
2017-06-22T14:29:27.881Z,9.70
2017-06-22T14:31:55.669Z,9.70
2017-06-22T14:34:23.328Z,8.80
2017-06-22T14:36:50.990Z,9.60
2017-06-22T14:39:18.751Z,9.00
2017-06-22T14:41:46.389Z,9.37
2017-06-22T14:44:14.089Z,9.07
2017-06-22T14:46:41.762Z,10.97
2017-06-22T14:49:09.496Z,8.83
2017-06-22T14:51:37.145Z,8.77
2017-06-22T14:54:05.227Z,8.40
2017-06-22T14:56:32.873Z,8.67
2017-06-22T14:59:00.604Z,8.63
2017-06-22T15:01:28.258Z,9.83
2017-06-22T15:03:55.909Z,9.27
2017-06-22T15:06:23.811Z,8.90
2017-06-22T15:08:52.219Z,9.27
2017-06-22T15:11:19.874Z,9.23
2017-06-22T15:13:47.726Z,9.73
2017-06-22T15:16:16.138Z,9.10
2017-06-22T15:18:43.793Z,9.07
2017-06-22T15:21:11.566Z,9.20
2017-06-22T15:23:39.223Z,10.00
2017-06-22T15:26:06.879Z,8.63
2017-06-22T15:28:34.520Z,8.60
2017-06-22T15:31:02.940Z,9.05
2017-06-22T15:33:30.946Z,9.53
2017-06-22T15:35:58.578Z,10.30
2017-06-22T15:38:26.344Z,8.20
2017-06-22T15:40:54.122Z,9.60
2017-06-22T15:43:21.787Z,9.10
2017-06-22T15:45:49.449Z,9.70
2017-06-22T15:48:17.293Z,10.60
2017-06-22T15:50:44.995Z,9.70
2017-06-22T15:53:13.416Z,10.63
2017-06-22T15:55:41.456Z,9.90
2017-06-22T15:58:09.998Z,9.50
2017-06-22T16:00:37.671Z,9.40
2017-06-22T16:03:05.656Z,10.60
2017-06-22T16:05:33.309Z,10.23
2017-06-22T16:08:01.073Z,9.77
2017-06-22T16:10:28.860Z,11.40
2017-06-22T16:12:57.289Z,10.27
2017-06-22T16:15:24.974Z,9.63
2017-06-22T16:17:52.763Z,9.60
2017-06-22T16:20:20.435Z,10.30
2017-06-22T16:22:48.089Z,9.63
2017-06-22T16:25:15.753Z,8.93
2017-06-22T16:27:43.425Z,9.30
2017-06-22T16:30:11.105Z,9.13
2017-06-22T16:32:38.757Z,9.33
2017-06-22T16:35:06.799Z,9.60
2017-06-22T16:37:34.442Z,8.87
2017-06-22T16:40:02.114Z,9.70
2017-06-22T16:42:29.771Z,9.70
2017-06-22T16:44:57.417Z,9.80
2017-06-22T16:47:25.096Z,10.47
2017-06-22T16:49:52.749Z,9.70
2017-06-22T16:52:20.532Z,10.00
2017-06-22T16:54:48.182Z,9.57
2017-06-22T16:57:15.840Z,9.47
2017-06-22T16:59:43.529Z,10.10
2017-06-22T17:02:11.975Z,10.50
2017-06-22T17:04:39.635Z,10.80
2017-06-22T17:07:07.325Z,10.00
2017-06-22T17:09:35.892Z,9.53
2017-06-22T17:12:03.569Z,9.07
2017-06-22T17:14:31.295Z,9.73
2017-06-22T17:16:59.353Z,10.90
2017-06-22T17:19:27.002Z,10.50
2017-06-22T17:21:54.684Z,10.50
2017-06-22T17:24:22.714Z,10.30
2017-06-22T17:26:51.146Z,10.70
2017-06-22T17:29:18.815Z,11.20
2017-06-22T17:31:46.852Z,10.03
2017-06-22T17:34:14.512Z,11.23
2017-06-22T17:36:42.165Z,10.40
2017-06-22T17:39:09.837Z,10.87
2017-06-22T17:41:37.512Z,11.80
2017-06-22T17:44:06.076Z,11.23
2017-06-22T17:46:33.698Z,10.60
2017-06-22T17:49:01.393Z,10.30
2017-06-22T17:51:29.054Z,11.10
2017-06-22T17:53:57.075Z,11.90
2017-06-22T17:56:24.735Z,10.20
2017-06-22T17:58:52.391Z,11.83
2017-06-22T18:01:20.054Z,11.30
2017-06-22T18:03:47.726Z,10.60
2017-06-22T18:06:15.392Z,10.80
2017-06-22T18:08:43.053Z,11.20
2017-06-22T18:11:11.060Z,10.40
2017-06-22T18:13:38.719Z,10.90
2017-06-22T18:16:06.382Z,10.80
2017-06-22T18:18:34.807Z,10.83
2017-06-22T18:21:02.529Z,11.90
2017-06-22T18:23:31.011Z,10.70
2017-06-22T18:25:59.436Z,11.27
2017-06-22T18:28:27.113Z,12.40
2017-06-22T18:30:54.782Z,10.97
2017-06-22T18:33:22.768Z,11.07
2017-06-22T18:35:51.198Z,11.10
2017-06-22T18:38:18.866Z,11.80
2017-06-22T18:40:46.591Z,11.60
2017-06-22T18:43:14.261Z,11.57
2017-06-22T18:45:41.963Z,10.80
2017-06-22T18:48:09.632Z,10.53
2017-06-22T18:50:37.300Z,12.20
2017-06-22T18:53:04.933Z,11.50
2017-06-22T18:55:32.612Z,11.90
2017-06-22T18:58:01.177Z,11.93
2017-06-22T19:00:28.858Z,12.40
2017-06-22T19:02:56.522Z,11.33
2017-06-22T19:05:24.183Z,11.63
2017-06-22T19:07:51.897Z,11.40
2017-06-22T19:10:19.645Z,11.23
2017-06-22T19:12:48.469Z,11.30
2017-06-22T19:15:16.424Z,11.87
2017-06-22T19:17:44.136Z,11.87
2017-06-22T19:20:11.918Z,11.83
2017-06-22T19:22:39.599Z,11.87
2017-06-22T19:25:08.043Z,12.47
2017-06-22T19:27:35.707Z,12.60
2017-06-22T19:30:03.359Z,12.17
2017-06-22T19:32:31.031Z,13.20
2017-06-22T19:34:59.041Z,12.03
2017-06-22T19:37:26.719Z,11.63
2017-06-22T19:39:54.442Z,12.40
2017-06-22T19:42:22.154Z,13.00
2017-06-22T19:44:49.819Z,12.40
2017-06-22T19:47:17.495Z,11.87
2017-06-22T19:49:45.160Z,12.50
2017-06-22T19:52:12.831Z,12.30
2017-06-22T19:54:40.496Z,12.00
2017-06-22T19:57:08.153Z,11.90
2017-06-22T19:59:35.817Z,11.63
2017-06-22T20:02:03.842Z,13.40
2017-06-22T20:04:31.501Z,11.53
2017-06-22T20:06:59.932Z,13.10
2017-06-22T20:09:27.635Z,12.43
2017-06-22T20:11:56.059Z,11.53
2017-06-22T20:14:23.785Z,13.10
2017-06-22T20:16:51.486Z,12.70
2017-06-22T20:19:19.189Z,12.87
2017-06-22T20:21:46.847Z,12.77
2017-06-22T20:24:14.527Z,12.30
2017-06-22T20:26:43.015Z,11.73
2017-06-22T20:29:11.596Z,12.20
2017-06-22T20:31:39.262Z,12.47
2017-06-22T20:34:06.917Z,12.30
2017-06-22T20:36:35.726Z,12.07
2017-06-22T20:39:03.441Z,12.37
2017-06-22T20:41:31.074Z,12.00
2017-06-22T20:43:59.326Z,12.80
2017-06-22T20:46:26.997Z,11.80
2017-06-22T20:48:54.673Z,12.47
2017-06-22T20:51:22.661Z,12.80
2017-06-22T20:53:50.321Z,13.90
2017-06-22T20:56:17.966Z,13.47
2017-06-22T20:58:46.039Z,13.00
2017-06-22T21:01:13.705Z,13.40
2017-06-22T21:03:41.353Z,12.37
2017-06-22T21:06:09.322Z,13.13
2017-06-22T21:08:36.978Z,13.23
2017-06-22T21:11:04.627Z,13.60
2017-06-22T21:13:32.307Z,14.47
2017-06-22T21:15:59.933Z,13.13
2017-06-22T21:18:28.833Z,12.83
2017-06-22T21:20:57.237Z,13.80
2017-06-22T21:23:25.030Z,13.90
2017-06-22T21:25:53.060Z,12.10
2017-06-22T21:28:20.735Z,12.43
